Thies, Senegal
Current Conditions -  °F | °C
As of 4:00 AM on Friday 19 Dec 2014 (Local Time) from GOOY Reporting Station
Clear Clear  
Wind Chill: 72°   Ceiling: Unl
Heat Index: 72°   Visibility: 5mi
Dew Point: 57°   Wind: 9mph
Humidity: 60%   Direction: 20°NNE
Pressure: 29.94"   Gusts: NA
Location:  14.81°N, 16.93°W
Report Text: GOOY 190400Z 02008KT 8000 NSC 22/14 Q1014 NOSIG
Loading
Personal Weather Stations






























Interactive Weather Map New forecast layout! Learn more

10-Day Weather Forecast

Advertisements
Track Severe Weather on mobile